Time;durP1;ratioP1;P1;durP2;ratioP2;P2;SDS_P1;SDS_P2;PMS_P1;PMS_P2;Temp;Humidity;BMP_temperature;BMP_pressure;BME280_temperature;BME280_humidity;BME280_pressure;Samples;Min_cycle;Max_cycle;Signal;HPM_P1;HPM_P2
2022/05/27 00:01:26;;;;;;;14.10;4.55;;;;;;;;;;5009599;28;20491;-75
2022/05/27 00:03:52;;;;;;;14.18;3.70;;;;;;;;;;5004037;28;20031;-75
2022/05/27 00:06:19;;;;;;;10.45;3.50;;;;;;;;;;5012086;28;20163;-76
2022/05/27 00:08:45;;;;;;;11.15;4.22;;;;;;;;;;5010299;28;20484;-75
2022/05/27 00:11:15;;;;;;;10.43;3.88;;;;;;;;;;5012550;28;20034;-76
2022/05/27 00:13:41;;;;;;;11.82;3.53;;;;;;;;;;5008789;28;20508;-75
2022/05/27 00:16:07;;;;;;;17.20;4.25;;;;;;;;;;5012780;28;20034;-75
2022/05/27 00:18:34;;;;;;;11.02;3.90;;;;;;;;;;5010574;28;20040;-75
2022/05/27 00:21:00;;;;;;;14.30;3.58;;;;;;;;;;5010269;28;20038;-76
2022/05/27 00:23:26;;;;;;;10.07;3.85;;;;;;;;;;5002895;28;20060;-75
2022/05/27 00:25:52;;;;;;;12.13;3.95;;;;;;;;;;5008920;28;20107;-75
2022/05/27 00:28:18;;;;;;;12.05;4.78;;;;;;;;;;5008446;28;20030;-75
2022/05/27 00:30:44;;;;;;;11.27;3.63;;;;;;;;;;5013059;28;20033;-73
2022/05/27 00:33:10;;;;;;;14.65;4.07;;;;;;;;;;5003543;28;20026;-76
2022/05/27 00:35:36;;;;;;;11.48;3.80;;;;;;;;;;5012032;28;20045;-75
2022/05/27 00:38:03;;;;;;;13.75;3.72;;;;;;;;;;5007042;28;20021;-75
2022/05/27 00:40:43;;;;;;;14.68;3.67;;;;;;;;;;5008933;28;20380;-76
2022/05/27 00:43:09;;;;;;;15.93;4.30;;;;;;;;;;5007388;28;20035;-75
2022/05/27 00:45:36;;;;;;;9.70;4.05;;;;;;;;;;5005409;28;20054;-75
2022/05/27 00:48:05;;;;;;;11.50;4.38;;;;;;;;;;5009057;28;20030;-75
2022/05/27 00:50:32;;;;;;;13.80;3.45;;;;;;;;;;5001487;28;20058;-75
2022/05/27 00:52:59;;;;;;;12.93;3.83;;;;;;;;;;5012205;28;20022;-74
2022/05/27 00:55:27;;;;;;;10.18;3.72;;;;;;;;;;5009217;28;20125;-75
2022/05/27 00:57:57;;;;;;;12.30;4.07;;;;;;;;;;5006522;28;20027;-75
2022/05/27 01:00:24;;;;;;;13.68;5.57;;;;;;;;;;5004055;28;20123;-75
2022/05/27 01:02:51;;;;;;;17.27;4.75;;;;;;;;;;5008535;28;20045;-74
2022/05/27 01:05:19;;;;;;;11.10;3.63;;;;;;;;;;5004668;28;20183;-75
2022/05/27 01:07:45;;;;;;;11.43;4.50;;;;;;;;;;5010524;28;20029;-76
2022/05/27 01:10:12;;;;;;;14.95;4.20;;;;;;;;;;5003046;28;20018;-75
2022/05/27 01:12:41;;;;;;;31.45;5.22;;;;;;;;;;5011659;28;20026;-75
2022/05/27 01:15:15;;;;;;;14.05;6.10;;;;;;;;;;5006320;28;20057;-74
2022/05/27 01:17:45;;;;;;;13.50;5.28;;;;;;;;;;5004343;28;20032;-75
2022/05/27 01:20:29;;;;;;;14.90;5.55;;;;;;;;;;5007859;28;20030;-76
2022/05/27 01:23:14;;;;;;;15.77;7.07;;;;;;;;;;5008090;28;20049;-75
2022/05/27 01:25:43;;;;;;;16.20;7.78;;;;;;;;;;5007418;28;20277;-75
2022/05/27 01:28:13;;;;;;;14.43;7.72;;;;;;;;;;5008820;28;20113;-74
2022/05/27 01:30:39;;;;;;;16.52;7.97;;;;;;;;;;5007656;28;20440;-75
2022/05/27 01:33:11;;;;;;;14.23;7.80;;;;;;;;;;5002994;28;20488;-75
2022/05/27 01:35:37;;;;;;;22.88;10.93;;;;;;;;;;5007483;28;20034;-75
2022/05/27 01:38:04;;;;;;;18.20;9.00;;;;;;;;;;5009595;28;20030;-75
2022/05/27 01:40:53;;;;;;;15.68;9.05;;;;;;;;;;5007791;28;20026;-75
2022/05/27 01:43:22;;;;;;;23.15;9.77;;;;;;;;;;5006717;28;20088;-75
2022/05/27 01:45:48;;;;;;;14.23;9.35;;;;;;;;;;5004770;28;20043;-75
2022/05/27 01:48:18;;;;;;;16.83;8.98;;;;;;;;;;5006780;28;20050;-73
2022/05/27 01:51:00;;;;;;;18.80;9.63;;;;;;;;;;5006911;28;20079;-75
2022/05/27 01:53:53;;;;;;;17.70;7.82;;;;;;;;;;5005234;28;20033;-75
2022/05/27 01:56:39;;;;;;;14.00;9.05;;;;;;;;;;5005519;28;20037;-75
2022/05/27 01:59:05;;;;;;;;;;;;;;;;;;5005220;28;20509;-73
2022/05/27 02:01:34;;;;;;;16.38;7.38;;;;;;;;;;5008302;28;19913;-75
2022/05/27 02:04:06;;;;;;;13.00;7.00;;;;;;;;;;5012429;28;20379;-75
2022/05/27 02:06:36;;;;;;;13.57;6.10;;;;;;;;;;5007347;28;20045;-75
2022/05/27 02:09:06;;;;;;;18.58;7.18;;;;;;;;;;5005200;28;20026;-75
2022/05/27 02:11:32;;;;;;;17.77;6.68;;;;;;;;;;5006102;28;20029;-75
2022/05/27 02:14:01;;;;;;;20.13;5.80;;;;;;;;;;5004691;28;20049;-75
2022/05/27 02:16:32;;;;;;;14.60;5.28;;;;;;;;;;5006458;28;20034;-75
2022/05/27 02:19:02;;;;;;;13.27;5.47;;;;;;;;;;5003706;28;20044;-75
2022/05/27 02:21:30;;;;;;;15.30;4.90;;;;;;;;;;5010546;28;20477;-76
2022/05/27 02:23:59;;;;;;;10.68;4.10;;;;;;;;;;5007450;28;20061;-75
2022/05/27 02:26:29;;;;;;;13.23;5.55;;;;;;;;;;5011005;28;20040;-75
2022/05/27 02:29:08;;;;;;;8.55;4.10;;;;;;;;;;5010291;28;20032;-75
2022/05/27 02:31:36;;;;;;;14.52;4.28;;;;;;;;;;5009315;28;20512;-75
2022/05/27 02:36:58;;;;;;;;;;;;;;;;;;5007059;28;20108;-75
2022/05/27 02:39:24;;;;;;;;;;;;;;;;;;5007554;28;19921;-75
2022/05/27 02:41:56;;;;;;;17.90;4.93;;;;;;;;;;5012621;28;19909;-75
2022/05/27 02:44:36;;;;;;;17.35;4.10;;;;;;;;;;5011727;28;20063;-74
2022/05/27 02:47:13;;;;;;;11.05;4.25;;;;;;;;;;4965454;28;1273679;-75
2022/05/27 02:49:50;;;;;;;8.13;3.30;;;;;;;;;;5009305;28;20026;-74
2022/05/27 02:52:19;;;;;;;13.45;3.80;;;;;;;;;;5009929;28;20014;-74
2022/05/27 02:55:04;;;;;;;11.95;4.93;;;;;;;;;;5006996;28;20066;-76
2022/05/27 02:57:42;;;;;;;17.55;3.92;;;;;;;;;;5015267;28;20029;-74
2022/05/27 03:00:12;;;;;;;15.60;4.05;;;;;;;;;;5014817;28;20044;-76
2022/05/27 03:02:38;;;;;;;9.93;3.60;;;;;;;;;;5011640;28;20030;-75
2022/05/27 03:05:04;;;;;;;12.02;4.95;;;;;;;;;;5008513;28;20095;-75
2022/05/27 03:07:56;;;;;;;12.23;3.65;;;;;;;;;;5009862;28;20388;-75
2022/05/27 03:10:28;;;;;;;12.90;3.80;;;;;;;;;;5014259;28;20403;-75
2022/05/27 03:12:58;;;;;;;9.15;3.70;;;;;;;;;;5009118;28;20123;-75
2022/05/27 03:15:43;;;;;;;11.45;3.60;;;;;;;;;;5010840;28;20379;-75
2022/05/27 03:18:18;;;;;;;8.60;4.00;;;;;;;;;;5008806;28;20052;-75
2022/05/27 03:20:54;;;;;;;11.30;5.03;;;;;;;;;;5009456;28;20360;-75
2022/05/27 03:23:23;;;;;;;21.60;4.10;;;;;;;;;;5010201;28;20041;-76
2022/05/27 03:26:03;;;;;;;13.30;3.70;;;;;;;;;;5008084;28;20030;-75
2022/05/27 03:28:31;;;;;;;12.98;3.90;;;;;;;;;;5012599;28;20034;-75
2022/05/27 03:31:07;;;;;;;14.90;4.22;;;;;;;;;;5016441;28;20029;-75
2022/05/27 03:33:38;;;;;;;7.47;3.63;;;;;;;;;;5005049;28;20022;-75
2022/05/27 03:36:04;;;;;;;10.55;3.67;;;;;;;;;;5013348;28;20105;-75
2022/05/27 03:38:50;;;;;;;11.60;4.03;;;;;;;;;;5012520;28;20036;-75
2022/05/27 03:41:21;;;;;;;15.00;4.30;;;;;;;;;;5009422;28;20038;-75
2022/05/27 03:43:47;;;;;;;14.13;4.15;;;;;;;;;;5006469;28;20459;-75
2022/05/27 03:46:13;;;;;;;10.52;3.97;;;;;;;;;;5010043;28;20108;-75
2022/05/27 03:48:39;;;;;;;13.45;4.10;;;;;;;;;;5009784;28;20109;-76
2022/05/27 03:51:11;;;;;;;11.40;3.95;;;;;;;;;;5009779;28;20072;-76
2022/05/27 03:56:22;;;;;;;12.05;3.55;;;;;;;;;;5006231;28;20064;-76
2022/05/27 03:58:48;;;;;;;15.15;4.63;;;;;;;;;;5017289;28;20068;-75
2022/05/27 04:01:14;;;;;;;20.77;5.13;;;;;;;;;;5008757;28;20034;-74
2022/05/27 04:03:40;;;;;;;14.20;3.90;;;;;;;;;;5010631;28;20022;-75
2022/05/27 04:06:06;;;;;;;15.48;4.57;;;;;;;;;;5010104;28;20102;-75
2022/05/27 04:08:32;;;;;;;15.32;4.50;;;;;;;;;;5007575;28;20030;-75
2022/05/27 04:10:58;;;;;;;11.02;3.42;;;;;;;;;;5009754;28;20057;-75
2022/05/27 04:13:24;;;;;;;9.77;3.83;;;;;;;;;;5009635;28;20036;-75
2022/05/27 04:15:50;;;;;;;11.43;3.45;;;;;;;;;;5009897;28;20029;-75
2022/05/27 04:18:16;;;;;;;10.25;4.10;;;;;;;;;;5005725;28;20112;-76
2022/05/27 04:20:42;;;;;;;12.90;4.05;;;;;;;;;;5010036;28;20026;-75
2022/05/27 04:23:08;;;;;;;12.65;4.43;;;;;;;;;;5008561;28;20034;-74
2022/05/27 04:25:34;;;;;;;13.52;3.83;;;;;;;;;;5008358;28;20029;-75
2022/05/27 04:28:00;;;;;;;11.82;4.43;;;;;;;;;;5007849;28;20108;-75
2022/05/27 04:30:27;;;;;;;11.75;3.88;;;;;;;;;;5010972;28;20030;-75
2022/05/27 04:32:53;;;;;;;10.60;3.58;;;;;;;;;;5007667;28;20033;-75
2022/05/27 04:35:19;;;;;;;9.80;3.50;;;;;;;;;;5012920;28;20042;-75
2022/05/27 04:37:45;;;;;;;17.48;3.53;;;;;;;;;;5010406;28;20022;-75
2022/05/27 04:40:11;;;;;;;7.32;3.72;;;;;;;;;;5009058;28;20022;-74
2022/05/27 04:42:38;;;;;;;8.77;3.40;;;;;;;;;;5008305;28;20042;-76
2022/05/27 04:45:04;;;;;;;14.13;5.20;;;;;;;;;;5006551;28;20065;-76
2022/05/27 04:47:30;;;;;;;12.40;3.90;;;;;;;;;;5008384;28;20029;-75
2022/05/27 04:49:56;;;;;;;8.02;4.00;;;;;;;;;;5005813;28;20094;-75
2022/05/27 04:52:32;;;;;;;10.15;3.80;;;;;;;;;;5007426;28;20101;-75
2022/05/27 04:54:59;;;;;;;14.05;3.17;;;;;;;;;;5008614;28;20038;-76
2022/05/27 04:57:33;;;;;;;10.07;4.03;;;;;;;;;;5006554;28;20083;-75
2022/05/27 05:00:00;;;;;;;10.93;3.53;;;;;;;;;;5008304;28;20120;-75
2022/05/27 05:02:26;;;;;;;11.23;3.55;;;;;;;;;;5008567;28;20125;-74
2022/05/27 05:04:52;;;;;;;16.45;3.95;;;;;;;;;;5005993;28;20026;-75
2022/05/27 05:07:20;;;;;;;12.63;3.53;;;;;;;;;;5005863;28;20036;-76
2022/05/27 05:09:46;;;;;;;13.07;3.88;;;;;;;;;;5009788;28;20400;-75
2022/05/27 05:12:13;;;;;;;12.32;3.63;;;;;;;;;;5011205;28;20033;-76
2022/05/27 05:14:39;;;;;;;9.50;3.25;;;;;;;;;;5011578;28;20040;-75
2022/05/27 05:17:06;;;;;;;6.30;3.30;;;;;;;;;;5002682;28;20764;-74
2022/05/27 05:19:32;;;;;;;15.18;3.42;;;;;;;;;;5012078;28;20034;-75
2022/05/27 05:21:58;;;;;;;10.27;3.63;;;;;;;;;;5008293;28;20049;-75
2022/05/27 05:24:25;;;;;;;13.27;5.22;;;;;;;;;;5009487;28;20033;-75
2022/05/27 05:26:51;;;;;;;9.48;3.78;;;;;;;;;;5006750;28;20026;-74
2022/05/27 05:29:17;;;;;;;10.00;4.03;;;;;;;;;;5008830;28;20018;-75
2022/05/27 05:31:43;;;;;;;9.27;3.20;;;;;;;;;;5008877;28;20026;-75
2022/05/27 05:34:09;;;;;;;8.38;4.03;;;;;;;;;;5006356;28;20480;-75
2022/05/27 05:36:35;;;;;;;12.18;4.18;;;;;;;;;;5008094;28;20026;-75
2022/05/27 05:39:03;;;;;;;13.27;4.25;;;;;;;;;;5008653;28;20034;-76
2022/05/27 05:41:36;;;;;;;8.93;3.25;;;;;;;;;;5009376;28;20141;-75
2022/05/27 05:44:02;;;;;;;10.38;3.60;;;;;;;;;;5006411;28;20046;-75
2022/05/27 05:46:29;;;;;;;7.20;3.13;;;;;;;;;;5008670;28;20049;-75
2022/05/27 05:48:55;;;;;;;11.38;3.92;;;;;;;;;;5003233;28;20022;-76
2022/05/27 05:51:21;;;;;;;10.38;3.30;;;;;;;;;;5008842;28;20053;-75
2022/05/27 05:53:48;;;;;;;6.15;3.40;;;;;;;;;;5006719;28;20040;-74
2022/05/27 05:56:14;;;;;;;13.45;3.55;;;;;;;;;;5007666;28;20030;-76
2022/05/27 05:58:42;;;;;;;14.38;4.25;;;;;;;;;;5003788;28;20069;-75
2022/05/27 06:01:08;;;;;;;8.48;4.07;;;;;;;;;;5005699;28;20033;-75
2022/05/27 06:03:34;;;;;;;8.88;3.03;;;;;;;;;;5013958;28;20302;-76
2022/05/27 06:06:01;;;;;;;10.10;3.75;;;;;;;;;;5003776;28;20037;-75
2022/05/27 06:08:27;;;;;;;8.63;3.20;;;;;;;;;;5005703;28;20100;-75
2022/05/27 06:10:53;;;;;;;9.65;3.53;;;;;;;;;;5010699;28;20057;-76
2022/05/27 06:13:20;;;;;;;11.38;3.65;;;;;;;;;;5005723;28;20029;-76
2022/05/27 06:15:46;;;;;;;6.43;2.75;;;;;;;;;;5025568;28;20518;-76
2022/05/27 06:18:13;;;;;;;9.20;3.35;;;;;;;;;;5007141;28;20091;-76
2022/05/27 06:20:40;;;;;;;8.35;4.13;;;;;;;;;;5009769;28;20551;-76
2022/05/27 06:23:07;;;;;;;12.32;3.33;;;;;;;;;;5008831;28;20150;-76
2022/05/27 06:25:33;;;;;;;7.18;3.33;;;;;;;;;;5008274;28;20042;-77
2022/05/27 06:36:15;;;;;;;9.32;2.70;;;;;;;;;;5006662;28;20065;-75
2022/05/27 06:38:41;;;;;;;13.18;3.50;;;;;;;;;;5001773;28;20096;-77
2022/05/27 06:41:07;;;;;;;15.38;5.40;;;;;;;;;;4998911;28;20101;-76
2022/05/27 06:43:34;;;;;;;9.52;3.53;;;;;;;;;;5003937;28;20147;-76
2022/05/27 06:46:00;;;;;;;17.98;4.43;;;;;;;;;;5001766;28;20046;-76
2022/05/27 06:48:27;;;;;;;9.80;3.20;;;;;;;;;;5001110;28;20034;-77
2022/05/27 06:50:53;;;;;;;12.90;3.20;;;;;;;;;;5005695;28;20097;-76
2022/05/27 06:53:19;;;;;;;8.75;3.25;;;;;;;;;;4996914;28;20038;-75
2022/05/27 06:55:49;;;;;;;6.60;2.65;;;;;;;;;;5007146;28;20543;-76
2022/05/27 06:58:15;;;;;;;11.48;3.08;;;;;;;;;;5001729;28;20499;-76
2022/05/27 07:00:42;;;;;;;11.43;3.92;;;;;;;;;;4997673;28;20030;-76
2022/05/27 07:03:08;;;;;;;14.38;3.72;;;;;;;;;;5001236;28;20042;-76
2022/05/27 07:05:35;;;;;;;9.23;3.80;;;;;;;;;;4997886;28;20030;-76
2022/05/27 07:08:05;;;;;;;7.97;3.47;;;;;;;;;;5004383;28;20026;-76
2022/05/27 07:10:34;;;;;;;12.63;2.75;;;;;;;;;;5007037;28;20107;-76
2022/05/27 07:13:00;;;;;;;14.10;4.38;;;;;;;;;;5020088;28;20026;-76
2022/05/27 07:15:27;;;;;;;10.77;3.10;;;;;;;;;;5005172;28;20104;-75
2022/05/27 07:17:53;;;;;;;12.25;4.15;;;;;;;;;;5004709;28;20101;-76
2022/05/27 07:20:20;;;;;;;8.82;2.75;;;;;;;;;;4999356;28;20030;-75
2022/05/27 07:22:46;;;;;;;9.10;3.63;;;;;;;;;;5019323;28;20251;-75
2022/05/27 07:25:13;;;;;;;7.60;3.13;;;;;;;;;;5003193;28;20029;-75
2022/05/27 07:27:40;;;;;;;10.65;3.22;;;;;;;;;;5000960;28;20434;-76
2022/05/27 07:30:07;;;;;;;8.52;3.42;;;;;;;;;;5010402;28;20026;-75
2022/05/27 07:32:37;;;;;;;10.30;2.63;;;;;;;;;;5004930;28;20030;-76
2022/05/27 07:35:06;;;;;;;7.03;3.08;;;;;;;;;;5005333;28;20025;-76
2022/05/27 07:37:32;;;;;;;9.70;2.85;;;;;;;;;;5003009;28;20030;-76
2022/05/27 07:39:58;;;;;;;6.60;3.05;;;;;;;;;;5002269;28;20032;-76
2022/05/27 07:42:24;;;;;;;7.45;3.22;;;;;;;;;;5010123;28;20790;-76
2022/05/27 07:44:50;;;;;;;9.35;3.20;;;;;;;;;;5007090;28;20037;-76
2022/05/27 07:47:17;;;;;;;8.63;3.70;;;;;;;;;;5003869;28;20042;-76
2022/05/27 07:49:43;;;;;;;7.30;2.80;;;;;;;;;;5017720;28;20029;-77
2022/05/27 07:52:10;;;;;;;5.68;3.33;;;;;;;;;;5010295;28;20369;-77
2022/05/27 07:54:36;;;;;;;8.88;2.97;;;;;;;;;;5005405;28;20056;-75
2022/05/27 07:57:02;;;;;;;6.28;2.22;;;;;;;;;;5009830;28;20036;-76
2022/05/27 07:59:29;;;;;;;8.43;3.05;;;;;;;;;;4998533;28;20030;-76
2022/05/27 08:01:55;;;;;;;7.57;3.15;;;;;;;;;;4999652;28;20106;-76
2022/05/27 08:04:21;;;;;;;6.93;2.90;;;;;;;;;;5008383;28;20044;-77
2022/05/27 08:06:47;;;;;;;5.82;2.30;;;;;;;;;;5010819;28;20048;-77
2022/05/27 08:09:14;;;;;;;7.18;2.72;;;;;;;;;;5006183;28;20034;-77
2022/05/27 08:11:40;;;;;;;7.97;2.92;;;;;;;;;;5002758;28;20022;-76
2022/05/27 08:14:08;;;;;;;9.77;2.65;;;;;;;;;;5001881;28;20038;-77
2022/05/27 08:16:35;;;;;;;7.60;3.40;;;;;;;;;;5004172;28;20061;-77
2022/05/27 08:19:01;;;;;;;5.95;2.17;;;;;;;;;;5004586;28;20026;-76
2022/05/27 08:21:27;;;;;;;5.63;3.00;;;;;;;;;;5007872;28;20057;-76
2022/05/27 08:23:54;;;;;;;6.25;3.30;;;;;;;;;;5009906;28;20058;-77
2022/05/27 08:26:20;;;;;;;8.60;3.05;;;;;;;;;;5005260;28;20030;-77
2022/05/27 08:28:47;;;;;;;6.28;3.05;;;;;;;;;;5005753;28;20037;-77
2022/05/27 08:31:13;;;;;;;14.70;2.97;;;;;;;;;;5006079;28;20092;-78
2022/05/27 08:39:10;;;;;;;7.50;2.50;;;;;;;;;;5011614;28;20068;-77
2022/05/27 08:41:42;;;;;;;6.45;2.20;;;;;;;;;;5006423;28;20034;-77
2022/05/27 08:44:17;;;;;;;6.65;2.55;;;;;;;;;;5000111;28;20042;-77
2022/05/27 08:46:49;;;;;;;6.80;2.47;;;;;;;;;;5002873;28;20445;-77
2022/05/27 08:49:18;;;;;;;6.15;2.42;;;;;;;;;;5002769;28;20484;-77
2022/05/27 08:51:54;;;;;;;4.07;2.05;;;;;;;;;;5001328;28;20034;-77
2022/05/27 08:54:24;;;;;;;5.60;2.25;;;;;;;;;;5009715;28;20084;-77
2022/05/27 08:59:55;;;;;;;7.43;2.53;;;;;;;;;;5000080;28;20451;-78
2022/05/27 09:02:36;;;;;;;9.73;2.55;;;;;;;;;;5004415;28;20022;-77
2022/05/27 09:05:22;;;;;;;6.35;2.03;;;;;;;;;;5007385;28;20026;-77
2022/05/27 09:07:59;;;;;;;7.28;2.47;;;;;;;;;;4999826;28;20479;-78
2022/05/27 09:10:25;;;;;;;8.38;2.50;;;;;;;;;;5014367;28;20112;-77
2022/05/27 09:12:59;;;;;;;4.68;2.40;;;;;;;;;;5004068;28;20034;-78
2022/05/27 09:15:47;;;;;;;6.97;2.15;;;;;;;;;;5001614;28;20061;-77
2022/05/27 09:18:32;;;;;;;9.05;2.58;;;;;;;;;;5007854;28;20037;-77
2022/05/27 09:21:07;;;;;;;5.85;2.22;;;;;;;;;;5009261;28;20040;-77
2022/05/27 09:23:33;;;;;;;;;;;;;;;;;;5021776;28;20045;-77
2022/05/27 09:26:11;;;;;;;3.83;2.13;;;;;;;;;;5013997;28;19909;-78
2022/05/27 09:28:57;;;;;;;5.65;2.40;;;;;;;;;;5008286;28;20052;-77
2022/05/27 09:31:31;;;;;;;8.15;2.63;;;;;;;;;;5008203;28;20030;-78
2022/05/27 09:33:57;;;;;;;6.35;2.60;;;;;;;;;;5006004;28;20076;-78
2022/05/27 09:36:28;;;;;;;5.47;2.60;;;;;;;;;;5002782;28;20036;-77
2022/05/27 09:38:57;;;;;;;4.75;2.22;;;;;;;;;;5003689;28;20480;-77
2022/05/27 09:41:56;;;;;;;8.93;2.13;;;;;;;;;;5007905;28;20057;-77
2022/05/27 09:44:30;;;;;;;6.07;2.20;;;;;;;;;;4986426;28;20045;-76
2022/05/27 09:46:57;;;;;;;10.55;2.75;;;;;;;;;;5006964;28;20045;-77
2022/05/27 09:49:26;;;;;;;4.82;2.58;;;;;;;;;;5004758;28;20041;-78
2022/05/27 09:51:52;;;;;;;6.43;2.38;;;;;;;;;;5006682;28;20481;-76
2022/05/27 09:54:24;;;;;;;6.32;2.17;;;;;;;;;;5008103;28;20042;-77
2022/05/27 09:57:08;;;;;;;5.85;2.65;;;;;;;;;;5002644;28;20041;-77
2022/05/27 09:59:36;;;;;;;2.95;2.05;;;;;;;;;;5005045;28;20021;-77
2022/05/27 10:02:20;;;;;;;4.95;2.40;;;;;;;;;;5010003;28;20033;-77
2022/05/27 10:04:50;;;;;;;4.93;2.33;;;;;;;;;;5019159;28;20149;-77
2022/05/27 10:07:23;;;;;;;5.70;2.80;;;;;;;;;;5015375;28;20036;-77
2022/05/27 10:09:49;;;;;;;9.93;3.03;;;;;;;;;;5010855;28;20088;-77
2022/05/27 10:12:28;;;;;;;9.23;3.53;;;;;;;;;;5007667;28;20491;-77
2022/05/27 10:14:55;;;;;;;5.00;2.17;;;;;;;;;;5012561;28;20038;-77
2022/05/27 10:17:36;;;;;;;5.88;3.13;;;;;;;;;;5013159;28;20037;-76
2022/05/27 10:20:34;;;;;;;5.40;2.35;;;;;;;;;;5009904;28;20033;-78
2022/05/27 10:23:03;;;;;;;6.20;2.40;;;;;;;;;;5002615;28;20041;-77
2022/05/27 10:25:39;;;;;;;8.50;2.40;;;;;;;;;;5002410;28;20093;-76
2022/05/27 10:28:10;;;;;;;3.72;2.20;;;;;;;;;;5008388;28;20036;-77
2022/05/27 10:30:39;;;;;;;7.35;2.55;;;;;;;;;;5008618;28;20140;-77
2022/05/27 10:33:19;;;;;;;6.88;2.63;;;;;;;;;;5009207;28;20113;-76
2022/05/27 10:35:46;;;;;;;8.35;2.67;;;;;;;;;;5009410;28;20037;-77
2022/05/27 10:38:40;;;;;;;5.20;2.50;;;;;;;;;;5009980;28;20037;-77
2022/05/27 10:41:16;;;;;;;5.47;2.38;;;;;;;;;;5013841;28;20033;-78
2022/05/27 10:44:01;;;;;;;4.15;2.00;;;;;;;;;;5018818;28;20033;-78
2022/05/27 10:46:33;;;;;;;7.50;2.45;;;;;;;;;;5009784;28;20054;-77
2022/05/27 10:49:08;;;;;;;5.07;2.40;;;;;;;;;;5020631;28;20033;-78
2022/05/27 10:51:40;;;;;;;3.90;2.03;;;;;;;;;;5016426;28;20488;-78
2022/05/27 10:54:07;;;;;;;5.25;2.30;;;;;;;;;;5019004;28;20053;-77
2022/05/27 10:56:42;;;;;;;9.32;2.30;;;;;;;;;;5013972;28;20056;-77
2022/05/27 11:02:18;;;;;;;5.75;2.22;;;;;;;;;;5010141;28;20593;-77
2022/05/27 11:04:48;;;;;;;7.25;2.50;;;;;;;;;;5019811;28;20485;-77
2022/05/27 11:07:17;;;;;;;9.40;2.33;;;;;;;;;;5013007;28;20037;-77
2022/05/27 11:09:53;;;;;;;6.55;2.15;;;;;;;;;;5014715;28;20093;-76
2022/05/27 11:15:10;;;;;;;5.07;2.85;;;;;;;;;;5016376;28;20042;-77
2022/05/27 11:15:27;;;;;;;7.15;2.33;;;;;;;;;;5008526;28;20588;-77
2022/05/27 11:18:15;;;;;;;4.25;1.70;;;;;;;;;;5013063;28;20056;-77
2022/05/27 11:20:41;;;;;;;4.63;2.00;;;;;;;;;;5006873;28;20547;-77
2022/05/27 11:23:39;;;;;;;6.15;2.20;;;;;;;;;;5014209;28;20103;-77
2022/05/27 11:26:13;;;;;;;4.75;2.58;;;;;;;;;;5005692;28;20609;-78
2022/05/27 11:28:47;;;;;;;5.63;2.50;;;;;;;;;;5018665;28;20033;-77
2022/05/27 11:31:14;;;;;;;6.63;3.55;;;;;;;;;;4998747;28;20042;-77
2022/05/27 11:33:46;;;;;;;5.55;2.20;;;;;;;;;;5019238;28;20426;-78
2022/05/27 11:36:30;;;;;;;8.05;2.78;;;;;;;;;;5008077;28;20030;-77
2022/05/27 11:39:03;;;;;;;4.97;2.20;;;;;;;;;;5010452;28;20643;-78
2022/05/27 11:41:33;;;;;;;5.47;2.50;;;;;;;;;;5011593;28;20341;-77
2022/05/27 11:44:02;;;;;;;5.97;2.47;;;;;;;;;;5004753;28;20038;-77
2022/05/27 11:46:43;;;;;;;4.28;2.20;;;;;;;;;;5005997;28;20078;-77
2022/05/27 11:49:37;;;;;;;5.10;2.20;;;;;;;;;;5010243;28;20030;-78
2022/05/27 11:52:22;;;;;;;7.32;2.60;;;;;;;;;;5003340;28;20074;-78
2022/05/27 11:55:06;;;;;;;4.13;2.17;;;;;;;;;;5012061;28;20025;-78
2022/05/27 11:57:47;;;;;;;4.20;2.30;;;;;;;;;;5013596;28;20033;-77
2022/05/27 12:00:16;;;;;;;4.95;2.03;;;;;;;;;;5019546;28;20718;-77
2022/05/27 12:02:58;;;;;;;5.97;2.25;;;;;;;;;;5008677;28;20038;-77
2022/05/27 12:05:29;;;;;;;6.07;2.30;;;;;;;;;;5010463;28;20038;-77
2022/05/27 12:07:58;;;;;;;6.00;3.15;;;;;;;;;;5004211;28;20022;-77
2022/05/27 12:10:47;;;;;;;7.07;2.08;;;;;;;;;;5003546;28;20476;-78
2022/05/27 12:13:28;;;;;;;6.30;3.05;;;;;;;;;;5002368;28;20116;-77
2022/05/27 12:16:01;;;;;;;5.15;1.92;;;;;;;;;;5013398;28;20030;-77
2022/05/27 12:18:47;;;;;;;3.60;2.30;;;;;;;;;;5016848;28;20054;-77
2022/05/27 12:21:18;;;;;;;7.50;2.22;;;;;;;;;;5003586;28;20069;-78
2022/05/27 12:23:48;;;;;;;3.83;2.25;;;;;;;;;;5002033;28;20484;-78
2022/05/27 12:26:15;;;;;;;7.43;2.53;;;;;;;;;;5004368;28;20440;-77
2022/05/27 12:28:43;;;;;;;6.05;2.10;;;;;;;;;;5005178;28;20025;-77
2022/05/27 12:31:10;;;;;;;3.17;2.15;;;;;;;;;;5021365;28;20030;-78
2022/05/27 12:33:37;;;;;;;8.95;2.28;;;;;;;;;;5010344;28;20037;-77
2022/05/27 12:36:05;;;;;;;4.35;2.28;;;;;;;;;;5008669;28;20022;-77
2022/05/27 12:38:33;;;;;;;5.95;2.83;;;;;;;;;;5004788;28;20563;-77
2022/05/27 12:41:09;;;;;;;6.35;2.90;;;;;;;;;;5009779;28;20025;-75
2022/05/27 12:44:00;;;;;;;5.82;2.60;;;;;;;;;;5016550;28;20019;-77
2022/05/27 12:46:26;;;;;;;7.25;2.20;;;;;;;;;;5004777;28;20192;-77
2022/05/27 12:48:55;;;;;;;4.57;2.15;;;;;;;;;;5006139;28;20811;-77
2022/05/27 12:51:21;;;;;;;5.05;2.40;;;;;;;;;;5002944;28;20384;-77
2022/05/27 12:53:48;;;;;;;4.55;2.45;;;;;;;;;;5006544;28;20018;-78
2022/05/27 13:02:28;;;;;;;5.00;2.28;;;;;;;;;;5009321;28;20443;-79
2022/05/27 13:04:54;;;;;;;5.32;2.03;;;;;;;;;;4994704;28;20129;-80
2022/05/27 13:07:41;;;;;;;6.22;2.22;;;;;;;;;;4998363;28;20053;-78
2022/05/27 13:10:19;;;;;;;5.18;2.30;;;;;;;;;;5005016;28;20472;-78
2022/05/27 13:12:45;;;;;;;5.18;2.25;;;;;;;;;;5015996;28;20027;-78
2022/05/27 13:15:31;;;;;;;3.95;2.00;;;;;;;;;;5005714;28;20011;-79
2022/05/27 13:18:07;;;;;;;4.13;2.30;;;;;;;;;;5010462;28;20026;-78
2022/05/27 13:20:52;;;;;;;4.28;2.38;;;;;;;;;;5003532;28;20037;-78
2022/05/27 13:23:19;;;;;;;3.95;2.20;;;;;;;;;;5000411;28;20507;-78
2022/05/27 13:25:49;;;;;;;5.22;2.78;;;;;;;;;;5003976;28;20025;-78
2022/05/27 13:28:34;;;;;;;5.75;2.28;;;;;;;;;;5000350;28;20540;-78
2022/05/27 13:31:00;;;;;;;;;;;;;;;;;;5017203;28;20393;-78
2022/05/27 13:33:29;;;;;;;4.32;1.98;;;;;;;;;;5004169;28;19971;-78
2022/05/27 13:35:56;;;;;;;6.38;2.30;;;;;;;;;;5006246;28;20030;-77
2022/05/27 13:38:27;;;;;;;3.40;2.13;;;;;;;;;;5007455;28;20021;-77
2022/05/27 13:40:54;;;;;;;6.63;3.10;;;;;;;;;;5004564;28;20026;-77
2022/05/27 13:43:23;;;;;;;6.05;2.28;;;;;;;;;;5016720;28;20033;-76
2022/05/27 13:45:50;;;;;;;5.18;2.83;;;;;;;;;;5015301;28;20129;-76
2022/05/27 13:48:16;;;;;;;5.57;2.10;;;;;;;;;;5006636;28;20186;-77
2022/05/27 13:50:44;;;;;;;7.57;3.28;;;;;;;;;;5004716;28;20045;-77
2022/05/27 13:53:24;;;;;;;10.15;3.08;;;;;;;;;;5003443;28;20030;-77
2022/05/27 13:55:52;;;;;;;5.03;2.30;;;;;;;;;;5003740;28;20510;-77
2022/05/27 13:58:19;;;;;;;4.13;2.15;;;;;;;;;;5001152;28;20069;-77
2022/05/27 14:00:49;;;;;;;3.70;2.28;;;;;;;;;;5002086;28;20591;-77
2022/05/27 14:03:48;;;;;;;5.72;2.10;;;;;;;;;;5002910;28;20041;-79
2022/05/27 14:06:22;;;;;;;3.40;2.33;;;;;;;;;;5002000;28;20116;-79
2022/05/27 14:08:48;;;;;;;8.30;2.88;;;;;;;;;;5000013;28;20029;-79
2022/05/27 14:11:16;;;;;;;4.00;2.10;;;;;;;;;;4996622;28;20034;-78
2022/05/27 14:13:42;;;;;;;5.57;2.15;;;;;;;;;;4996338;28;20066;-77
2022/05/27 14:16:10;;;;;;;5.93;2.40;;;;;;;;;;4998700;28;20045;-76
2022/05/27 14:18:36;;;;;;;3.95;1.98;;;;;;;;;;5006846;28;20036;-77
2022/05/27 14:23:52;;;;;;;5.30;2.85;;;;;;;;;;5003234;28;20436;-77
2022/05/27 14:26:19;;;;;;;6.13;2.60;;;;;;;;;;5002316;28;20439;-76
2022/05/27 14:29:00;;;;;;;4.40;2.15;;;;;;;;;;5013543;28;20112;-77
2022/05/27 14:31:31;;;;;;;5.68;2.20;;;;;;;;;;5010899;28;20101;-79
2022/05/27 14:34:00;;;;;;;6.88;3.00;;;;;;;;;;5005998;28;20089;-77
2022/05/27 14:36:30;;;;;;;8.43;2.45;;;;;;;;;;5005579;28;20030;-78
2022/05/27 14:39:00;;;;;;;6.53;2.40;;;;;;;;;;5006931;28;20018;-77
2022/05/27 14:41:31;;;;;;;7.00;2.60;;;;;;;;;;5006807;28;20631;-77
2022/05/27 14:44:01;;;;;;;3.88;2.22;;;;;;;;;;5008167;28;20495;-77
2022/05/27 14:46:31;;;;;;;5.63;2.42;;;;;;;;;;5009744;28;20044;-77
2022/05/27 14:49:02;;;;;;;5.30;2.40;;;;;;;;;;5000865;28;20030;-78
2022/05/27 14:51:40;;;;;;;3.78;2.58;;;;;;;;;;5005904;28;20045;-77
2022/05/27 14:54:24;;;;;;;7.35;2.70;;;;;;;;;;5001864;28;20089;-77
2022/05/27 14:56:51;;;;;;;4.53;2.28;;;;;;;;;;5001795;28;20037;-77
2022/05/27 14:59:19;;;;;;;6.07;2.50;;;;;;;;;;5011903;28;20037;-77
2022/05/27 15:01:51;;;;;;;6.00;2.50;;;;;;;;;;5011419;28;20022;-77
2022/05/27 15:04:27;;;;;;;4.97;2.17;;;;;;;;;;5001303;28;20021;-78
2022/05/27 15:06:54;;;;;;;5.28;2.55;;;;;;;;;;5000093;28;20026;-77
2022/05/27 15:09:23;;;;;;;6.43;2.13;;;;;;;;;;5003995;28;20030;-77
2022/05/27 15:11:49;;;;;;;5.90;2.45;;;;;;;;;;5002133;28;20555;-77
2022/05/27 15:14:23;;;;;;;6.25;2.25;;;;;;;;;;5004340;28;20030;-77
2022/05/27 15:16:54;;;;;;;6.50;2.72;;;;;;;;;;5004265;28;20033;-78
2022/05/27 15:19:20;;;;;;;4.95;2.22;;;;;;;;;;5004266;28;20531;-78
2022/05/27 15:21:48;;;;;;;7.28;2.78;;;;;;;;;;5008613;28;20565;-77
2022/05/27 15:24:34;;;;;;;3.72;2.20;;;;;;;;;;5002893;28;20069;-77
2022/05/27 15:35:33;;;;;;;5.18;3.03;;;;;;;;;;5010594;28;20552;-77
2022/05/27 15:37:59;;;;;;;7.68;2.40;;;;;;;;;;5005698;28;20030;-77
2022/05/27 15:40:26;;;;;;;5.60;2.30;;;;;;;;;;5004408;28;20030;-77
2022/05/27 15:42:55;;;;;;;7.20;2.33;;;;;;;;;;5003158;28;20027;-76